createdAt,value
2024-05-09T00:00:40.420Z,82.48
2024-05-09T00:03:09.695Z,82.43
2024-05-09T00:05:38.112Z,82.14
2024-05-09T00:08:06.085Z,82.27
2024-05-09T00:10:38.103Z,82.20
2024-05-09T00:13:07.101Z,82.08
2024-05-09T00:15:35.209Z,82.16
2024-05-09T00:18:03.296Z,82.14
2024-05-09T00:20:37.653Z,82.09
2024-05-09T00:23:08.041Z,82.16
2024-05-09T00:25:38.270Z,82.10
2024-05-09T00:28:05.929Z,81.99
2024-05-09T00:30:35.779Z,82.17
2024-05-09T00:33:05.144Z,82.17
2024-05-09T00:35:33.108Z,82.14
2024-05-09T00:38:00.319Z,81.98
2024-05-09T00:40:37.634Z,82.18
2024-05-09T00:43:10.402Z,81.88
2024-05-09T00:45:37.569Z,82.07
2024-05-09T00:48:08.595Z,82.07
2024-05-09T00:50:39.756Z,82.14
2024-05-09T00:53:08.425Z,82.19
2024-05-09T00:55:36.637Z,82.20
2024-05-09T00:58:05.432Z,82.45
2024-05-09T01:00:39.347Z,82.51
2024-05-09T01:03:08.705Z,82.18
2024-05-09T01:05:39.203Z,82.38
2024-05-09T01:08:07.350Z,82.28
2024-05-09T01:10:35.587Z,82.29
2024-05-09T01:13:03.729Z,82.21
2024-05-09T01:15:30.781Z,82.22
2024-05-09T01:18:01.505Z,82.21
2024-05-09T01:20:39.124Z,82.33
2024-05-09T01:23:14.382Z,82.26
2024-05-09T01:25:43.350Z,82.39
2024-05-09T01:28:10.530Z,82.46
2024-05-09T01:30:38.233Z,82.43
2024-05-09T01:33:08.111Z,82.47
2024-05-09T01:35:36.806Z,82.49
2024-05-09T01:38:04.276Z,82.54
2024-05-09T01:40:38.399Z,82.56
2024-05-09T01:43:07.104Z,82.71
2024-05-09T01:45:34.212Z,82.68
2024-05-09T01:48:01.472Z,82.77
2024-05-09T01:50:37.944Z,82.89
2024-05-09T01:53:08.416Z,82.70
2024-05-09T01:55:38.049Z,82.68
2024-05-09T01:58:05.129Z,82.98
2024-05-09T02:00:38.871Z,83.00
2024-05-09T02:03:10.034Z,82.86
2024-05-09T02:05:37.879Z,82.80
2024-05-09T02:08:05.696Z,82.98
2024-05-09T02:10:33.504Z,82.79
2024-05-09T02:13:03.316Z,82.69
2024-05-09T02:15:30.147Z,82.87
2024-05-09T02:17:57.296Z,82.82
2024-05-09T02:20:33.107Z,82.76
2024-05-09T02:23:04.255Z,82.70
2024-05-09T02:25:31.789Z,82.84
2024-05-09T02:27:58.727Z,82.97
2024-05-09T02:32:58.180Z,83.01
2024-05-09T02:35:26.456Z,82.96
2024-05-09T02:37:53.549Z,82.94
2024-05-09T02:40:28.297Z,82.87
2024-05-09T02:43:00.770Z,82.95
2024-05-09T02:45:30.242Z,83.00
2024-05-09T02:47:57.399Z,83.05
2024-05-09T02:50:33.120Z,82.94
2024-05-09T02:53:04.877Z,82.98
2024-05-09T02:55:31.721Z,83.05
2024-05-09T02:57:58.550Z,83.09
2024-05-09T03:00:34.463Z,83.12
2024-05-09T03:03:10.342Z,83.10
2024-05-09T03:05:39.784Z,83.22
2024-05-09T03:08:07.476Z,83.34
2024-05-09T03:10:36.792Z,83.32
2024-05-09T03:13:06.529Z,83.20
2024-05-09T03:15:33.377Z,83.29
2024-05-09T03:18:00.899Z,83.31
2024-05-09T03:20:34.557Z,83.04
2024-05-09T03:23:03.282Z,83.09
2024-05-09T03:25:30.313Z,82.89
2024-05-09T03:27:57.209Z,83.04
2024-05-09T03:30:36.001Z,82.97
2024-05-09T03:33:10.079Z,82.92
2024-05-09T03:35:39.820Z,83.02
2024-05-09T03:38:06.660Z,82.94
2024-05-09T03:40:33.477Z,83.08
2024-05-09T03:43:00.272Z,82.74
2024-05-09T03:45:27.038Z,82.67
2024-05-09T03:47:54.002Z,82.63
2024-05-09T03:50:29.528Z,83.08
2024-05-09T03:53:03.372Z,83.09
2024-05-09T03:55:31.008Z,83.33
2024-05-09T03:57:57.904Z,83.23
2024-05-09T04:00:31.486Z,83.03
2024-05-09T04:03:05.894Z,83.20
2024-05-09T04:05:34.700Z,83.03
2024-05-09T04:08:04.990Z,82.87
2024-05-09T04:10:34.196Z,82.94
2024-05-09T04:13:02.677Z,82.71
2024-05-09T04:15:29.768Z,82.70
2024-05-09T04:17:56.835Z,82.67
2024-05-09T04:20:33.643Z,82.69
2024-05-09T04:23:10.748Z,82.59
2024-05-09T04:25:38.019Z,82.40
2024-05-09T04:28:05.739Z,82.59
2024-05-09T04:30:38.157Z,82.70
2024-05-09T04:33:09.558Z,82.44
2024-05-09T04:35:38.942Z,82.34
2024-05-09T04:38:08.759Z,82.41
2024-05-09T04:40:37.117Z,82.63
2024-05-09T04:43:05.578Z,82.38
2024-05-09T04:45:32.879Z,82.50
2024-05-09T04:48:00.211Z,82.61
2024-05-09T04:50:35.897Z,82.64
2024-05-09T04:53:06.233Z,82.58
2024-05-09T04:55:36.369Z,82.63
2024-05-09T04:58:08.082Z,82.50
2024-05-09T05:00:37.383Z,82.65
2024-05-09T05:03:07.385Z,82.76
2024-05-09T05:05:37.888Z,82.79
2024-05-09T05:08:11.654Z,82.79
2024-05-09T05:10:41.396Z,82.96
2024-05-09T05:13:20.207Z,83.14
2024-05-09T05:15:52.150Z,82.81
2024-05-09T05:18:19.562Z,83.07
2024-05-09T05:20:47.105Z,83.01
2024-05-09T05:23:15.920Z,83.21
2024-05-09T05:25:50.059Z,83.14
2024-05-09T05:28:17.614Z,82.99
2024-05-09T05:30:45.310Z,83.21
2024-05-09T05:33:14.404Z,83.25
2024-05-09T05:35:42.067Z,83.37
2024-05-09T05:38:10.160Z,83.57
2024-05-09T05:40:38.838Z,83.28
2024-05-09T05:43:15.793Z,83.70
2024-05-09T05:45:42.608Z,83.52
2024-05-09T05:48:10.049Z,83.74
2024-05-09T05:50:38.415Z,83.85
2024-05-09T05:53:06.721Z,83.57
2024-05-09T05:55:33.944Z,83.83
2024-05-09T05:58:01.333Z,83.70
2024-05-09T06:00:38.137Z,83.91
2024-05-09T06:03:07.578Z,83.83
2024-05-09T06:05:35.757Z,83.91
2024-05-09T06:08:02.782Z,83.88
2024-05-09T06:10:37.453Z,83.95
2024-05-09T06:13:06.817Z,83.87
2024-05-09T06:15:36.293Z,84.04
2024-05-09T06:18:05.765Z,83.95
2024-05-09T06:20:36.452Z,84.18
2024-05-09T06:23:05.628Z,84.27
2024-05-09T06:25:32.748Z,84.23
2024-05-09T06:28:00.051Z,84.27
2024-05-09T06:30:36.560Z,84.42
2024-05-09T06:33:12.482Z,84.34
2024-05-09T06:35:41.589Z,84.41
2024-05-09T06:38:09.459Z,84.41
2024-05-09T06:40:40.227Z,84.54
2024-05-09T06:43:11.198Z,84.49
2024-05-09T06:45:39.900Z,84.45
2024-05-09T06:48:10.473Z,84.39
2024-05-09T06:50:39.234Z,84.29
2024-05-09T06:53:07.471Z,84.24
2024-05-09T06:55:34.651Z,84.54
2024-05-09T06:58:01.537Z,84.56
2024-05-09T07:00:35.715Z,84.56
2024-05-09T07:03:12.440Z,84.50
2024-05-09T07:05:40.790Z,84.59
2024-05-09T07:08:08.258Z,84.69
2024-05-09T07:10:36.485Z,84.94
2024-05-09T07:13:08.217Z,84.81
2024-05-09T07:15:34.981Z,84.77
2024-05-09T07:18:01.939Z,84.85
2024-05-09T07:20:34.722Z,84.85
2024-05-09T07:23:02.296Z,84.90
2024-05-09T07:25:29.500Z,84.92
2024-05-09T07:27:56.375Z,85.05
2024-05-09T07:30:27.933Z,84.90
2024-05-09T07:33:00.528Z,85.06
2024-05-09T07:35:27.791Z,85.02
2024-05-09T07:37:57.457Z,85.10
2024-05-09T07:40:32.831Z,84.94
2024-05-09T07:43:03.582Z,85.14
2024-05-09T07:45:47.399Z,85.10
2024-05-09T07:53:39.165Z,84.94
2024-05-09T07:56:09.986Z,84.96
2024-05-09T07:58:37.416Z,84.82
2024-05-09T08:01:04.926Z,84.77
2024-05-09T08:03:32.006Z,84.79
2024-05-09T08:05:58.861Z,84.82
2024-05-09T08:08:28.308Z,84.52
2024-05-09T08:10:55.195Z,84.71
2024-05-09T08:13:22.175Z,84.78
2024-05-09T08:15:49.280Z,84.74
2024-05-09T08:18:16.321Z,84.46
2024-05-09T08:20:43.210Z,84.56
2024-05-09T08:23:11.225Z,84.50
2024-05-09T08:25:40.735Z,84.61
2024-05-09T08:28:08.202Z,84.60
2024-05-09T08:30:37.356Z,84.53
2024-05-09T08:33:06.860Z,84.45
2024-05-09T08:35:35.059Z,84.17
2024-05-09T08:38:02.591Z,84.26
2024-05-09T08:40:35.424Z,84.12
2024-05-09T08:43:09.778Z,84.25
2024-05-09T08:45:42.405Z,83.97
2024-05-09T08:48:12.036Z,84.02
2024-05-09T08:50:41.154Z,84.17
2024-05-09T08:53:08.858Z,84.16
2024-05-09T08:55:40.418Z,83.93
2024-05-09T08:58:15.917Z,83.87
2024-05-09T09:00:44.212Z,83.99
2024-05-09T09:03:15.696Z,83.80
2024-05-09T09:05:48.024Z,83.84
2024-05-09T09:08:15.708Z,83.59
2024-05-09T09:10:43.459Z,83.58
2024-05-09T09:13:13.221Z,83.40
2024-05-09T09:15:46.995Z,83.25
2024-05-09T09:18:14.987Z,83.07
2024-05-09T09:20:41.976Z,83.13
2024-05-09T09:23:09.087Z,83.05
2024-05-09T09:25:39.358Z,82.62
2024-05-09T09:28:07.644Z,82.65
2024-05-09T09:30:39.381Z,82.51
2024-05-09T09:33:06.851Z,82.40
2024-05-09T09:35:35.877Z,82.12
2024-05-09T09:38:04.508Z,82.11
2024-05-09T09:40:37.327Z,82.09
2024-05-09T09:43:13.178Z,81.77
2024-05-09T09:45:44.160Z,81.56
2024-05-09T09:48:14.705Z,81.45
2024-05-09T09:50:42.023Z,81.29
2024-05-09T09:53:10.391Z,81.08
2024-05-09T09:55:39.795Z,80.52
2024-05-09T09:58:09.735Z,80.91
2024-05-09T10:00:39.347Z,80.61
2024-05-09T10:03:09.077Z,80.40
2024-05-09T10:05:36.750Z,80.15
2024-05-09T10:08:06.397Z,80.11
2024-05-09T10:10:34.871Z,79.78
2024-05-09T10:13:03.642Z,79.93
2024-05-09T10:15:31.411Z,79.54
2024-05-09T10:18:05.591Z,79.51
2024-05-09T10:20:42.944Z,79.58
2024-05-09T10:23:23.947Z,79.15
2024-05-09T10:25:58.113Z,79.42
2024-05-09T10:28:28.114Z,79.28
2024-05-09T10:31:08.240Z,79.69
2024-05-09T10:33:37.091Z,79.47
2024-05-09T10:36:11.039Z,78.99
2024-05-09T10:38:39.874Z,79.14
2024-05-09T10:41:06.850Z,79.34
2024-05-09T10:43:34.014Z,79.13
2024-05-09T10:46:02.023Z,79.03
2024-05-09T10:48:29.111Z,78.69
2024-05-09T10:50:56.166Z,79.02
2024-05-09T10:53:25.619Z,78.54
2024-05-09T10:55:56.609Z,78.41
2024-05-09T10:58:23.474Z,78.42
2024-05-09T11:00:50.876Z,77.99
2024-05-09T11:03:18.473Z,77.23
2024-05-09T11:05:47.566Z,77.34
2024-05-09T11:08:14.821Z,77.32
2024-05-09T11:10:45.140Z,77.01
2024-05-09T11:13:12.106Z,77.40
2024-05-09T11:15:39.887Z,77.01
2024-05-09T11:18:07.089Z,76.73
2024-05-09T11:20:35.569Z,76.50
2024-05-09T11:23:05.008Z,76.48
2024-05-09T11:25:33.271Z,76.52
2024-05-09T11:28:03.186Z,76.34
2024-05-09T11:30:34.697Z,76.17
2024-05-09T11:33:01.759Z,76.14
2024-05-09T11:35:29.459Z,75.88
2024-05-09T11:37:56.366Z,75.54
2024-05-09T11:40:26.032Z,75.54
2024-05-09T11:42:59.382Z,75.41
2024-05-09T11:45:28.970Z,75.02
2024-05-09T11:47:56.049Z,75.26
2024-05-09T11:50:29.682Z,74.53
2024-05-09T11:52:59.773Z,74.97
2024-05-09T11:55:28.232Z,74.72
2024-05-09T11:57:55.913Z,74.36
2024-05-09T12:00:33.690Z,74.39
2024-05-09T12:03:06.659Z,74.36
2024-05-09T12:05:34.379Z,74.45
2024-05-09T12:08:01.831Z,74.52
2024-05-09T12:10:33.575Z,74.10
2024-05-09T12:13:03.141Z,74.39
2024-05-09T12:15:31.110Z,74.35
2024-05-09T12:18:00.223Z,74.04
2024-05-09T12:20:37.156Z,74.11
2024-05-09T12:23:06.710Z,73.72
2024-05-09T12:25:33.718Z,73.23
2024-05-09T12:28:01.014Z,73.52
2024-05-09T12:30:36.094Z,73.21
2024-05-09T12:33:06.694Z,73.63
2024-05-09T12:35:36.261Z,73.36
2024-05-09T12:38:03.666Z,73.44
2024-05-09T12:40:36.615Z,72.95
2024-05-09T12:43:06.516Z,72.75
2024-05-09T12:45:33.677Z,72.51
2024-05-09T12:48:01.060Z,72.97
2024-05-09T12:50:32.783Z,72.69
2024-05-09T12:53:04.698Z,72.33
2024-05-09T12:55:40.344Z,72.36
2024-05-09T12:58:15.431Z,72.12
2024-05-09T13:00:42.552Z,71.75
2024-05-09T13:03:09.601Z,71.39
2024-05-09T13:05:36.627Z,71.54
2024-05-09T13:08:07.191Z,71.52
2024-05-09T13:10:34.991Z,70.66
2024-05-09T13:13:02.534Z,70.85
2024-05-09T13:15:30.222Z,70.62
2024-05-09T13:18:00.333Z,70.51
2024-05-09T13:20:33.391Z,70.47
2024-05-09T13:23:06.720Z,70.50
2024-05-09T13:25:35.094Z,70.50
2024-05-09T13:28:02.535Z,70.54
2024-05-09T13:30:38.480Z,70.09
2024-05-09T13:33:08.952Z,69.86
2024-05-09T13:35:36.319Z,69.75
2024-05-09T13:38:05.905Z,69.99
2024-05-09T13:40:35.302Z,69.42
2024-05-09T13:43:04.376Z,68.85
2024-05-09T13:45:31.670Z,68.74
2024-05-09T13:47:59.158Z,68.43
2024-05-09T13:50:33.896Z,68.65
2024-05-09T13:53:07.255Z,68.96
2024-05-09T13:55:37.383Z,68.63
2024-05-09T13:58:04.707Z,68.99
2024-05-09T14:00:42.408Z,68.72
2024-05-09T14:03:14.791Z,68.75
2024-05-09T14:05:42.163Z,68.93
2024-05-09T14:08:13.685Z,68.20
2024-05-09T14:10:44.482Z,68.46
2024-05-09T14:13:11.809Z,67.98
2024-05-09T14:15:38.834Z,68.35
2024-05-09T14:18:07.987Z,68.84
2024-05-09T14:20:35.497Z,68.74
2024-05-09T14:23:02.252Z,68.58
2024-05-09T14:25:36.537Z,69.06
2024-05-09T14:28:06.456Z,68.69
2024-05-09T14:30:37.333Z,68.80
2024-05-09T14:33:07.093Z,69.41
2024-05-09T14:35:34.894Z,68.76
2024-05-09T14:38:01.933Z,69.01
2024-05-09T14:40:40.558Z,69.25
2024-05-09T14:43:11.281Z,69.23
2024-05-09T14:45:38.650Z,68.71
2024-05-09T14:48:06.986Z,69.06
2024-05-09T14:50:37.561Z,68.82
2024-05-09T14:53:07.367Z,68.58
2024-05-09T14:55:39.832Z,68.92
2024-05-09T14:58:08.603Z,68.74
2024-05-09T15:00:40.138Z,68.45
2024-05-09T15:03:09.209Z,68.88
2024-05-09T15:05:36.067Z,68.40
2024-05-09T15:08:05.989Z,68.99
2024-05-09T15:10:35.764Z,69.08
2024-05-09T15:13:08.708Z,68.38
2024-05-09T15:15:37.617Z,68.24
2024-05-09T15:18:05.586Z,68.65
2024-05-09T15:20:36.173Z,68.82
2024-05-09T15:23:06.550Z,68.83
2024-05-09T15:25:34.820Z,68.30
2024-05-09T15:28:01.899Z,68.37
2024-05-09T15:30:33.521Z,68.37
2024-05-09T15:33:04.165Z,68.18
2024-05-09T15:35:31.441Z,68.43
2024-05-09T15:37:58.466Z,67.75
2024-05-09T15:40:35.528Z,67.63
2024-05-09T15:43:07.292Z,67.45
2024-05-09T15:45:37.307Z,67.34
2024-05-09T15:48:05.590Z,67.40
2024-05-09T15:50:38.196Z,67.50
2024-05-09T15:53:08.694Z,67.78
2024-05-09T15:55:36.442Z,67.87
2024-05-09T15:58:04.310Z,67.96
2024-05-09T16:00:37.793Z,67.55
2024-05-09T16:03:12.625Z,67.23
2024-05-09T16:05:41.540Z,67.83
2024-05-09T16:08:08.866Z,67.61
2024-05-09T16:10:36.733Z,68.07
2024-05-09T16:13:04.918Z,67.37
2024-05-09T16:15:32.100Z,67.54
2024-05-09T16:17:59.480Z,67.73
2024-05-09T16:20:37.431Z,66.88
2024-05-09T16:23:08.057Z,66.52
2024-05-09T16:25:35.293Z,66.22
2024-05-09T16:28:03.801Z,65.65
2024-05-09T16:30:35.386Z,65.90
2024-05-09T16:33:04.012Z,65.64
2024-05-09T16:35:35.163Z,65.55
2024-05-09T16:38:03.103Z,65.42
2024-05-09T16:40:37.567Z,65.55
2024-05-09T16:43:07.932Z,65.13
2024-05-09T16:45:35.372Z,65.12
2024-05-09T16:48:02.643Z,65.47
2024-05-09T16:50:33.977Z,65.72
2024-05-09T16:53:06.692Z,66.03
2024-05-09T16:55:35.752Z,66.14
2024-05-09T16:58:03.634Z,66.20
2024-05-09T17:00:39.213Z,66.21
2024-05-09T17:03:11.345Z,66.33
2024-05-09T17:05:39.431Z,66.88
2024-05-09T17:08:09.394Z,66.93
2024-05-09T17:10:36.821Z,66.86
2024-05-09T17:13:06.087Z,66.91
2024-05-09T17:15:34.402Z,67.12
2024-05-09T17:18:02.042Z,67.18
2024-05-09T17:20:33.667Z,67.16
2024-05-09T17:23:03.577Z,66.75
2024-05-09T17:25:33.308Z,66.76
2024-05-09T17:28:06.267Z,67.25
2024-05-09T17:30:36.794Z,66.75
2024-05-09T17:33:07.371Z,66.99
2024-05-09T17:35:35.460Z,67.01
2024-05-09T17:38:02.593Z,67.24
2024-05-09T17:40:33.812Z,67.40
2024-05-09T17:43:07.042Z,67.50
2024-05-09T17:45:37.651Z,66.99
2024-05-09T17:48:05.391Z,67.07
2024-05-09T17:50:35.919Z,67.16
2024-05-09T17:53:05.263Z,67.03
2024-05-09T17:55:32.721Z,67.31
2024-05-09T17:57:59.865Z,67.10
2024-05-09T18:00:37.390Z,67.23
2024-05-09T18:03:08.401Z,67.65
2024-05-09T18:05:36.923Z,67.71
2024-05-09T18:08:05.336Z,67.89
2024-05-09T18:10:36.839Z,67.83
2024-05-09T18:13:06.895Z,68.21
2024-05-09T18:15:37.263Z,68.19
2024-05-09T18:18:05.455Z,68.55
2024-05-09T18:20:41.422Z,68.76
2024-05-09T18:23:13.371Z,68.98
2024-05-09T18:25:40.905Z,68.73
2024-05-09T18:28:08.238Z,69.40
2024-05-09T18:30:38.180Z,69.22
2024-05-09T18:33:07.799Z,69.88
2024-05-09T18:35:35.583Z,69.91
2024-05-09T18:38:03.050Z,70.10
2024-05-09T18:40:34.508Z,70.05
2024-05-09T18:43:06.712Z,70.08
2024-05-09T18:45:38.587Z,70.30
2024-05-09T18:48:07.716Z,70.81
2024-05-09T18:50:38.572Z,70.83
2024-05-09T18:53:08.488Z,71.01
2024-05-09T18:55:35.626Z,71.29
2024-05-09T18:58:03.531Z,71.09
2024-05-09T19:00:35.352Z,71.21
2024-05-09T19:03:11.354Z,71.77
2024-05-09T19:05:40.977Z,71.61
2024-05-09T19:08:08.675Z,71.69
2024-05-09T19:10:38.470Z,72.15
2024-05-09T19:13:10.394Z,72.06
2024-05-09T19:15:40.248Z,72.12
2024-05-09T19:18:11.787Z,72.36
2024-05-09T19:20:39.206Z,72.31
2024-05-09T19:23:07.265Z,72.78
2024-05-09T19:25:35.047Z,72.42
2024-05-09T19:28:02.294Z,72.47
2024-05-09T19:30:37.366Z,73.12
2024-05-09T19:33:14.596Z,73.25
2024-05-09T19:35:42.026Z,73.16
2024-05-09T19:38:08.985Z,73.21
2024-05-09T19:40:36.473Z,73.04
2024-05-09T19:43:05.111Z,73.39
2024-05-09T19:45:33.915Z,73.64
2024-05-09T19:48:02.426Z,73.59
2024-05-09T19:50:39.986Z,73.86
2024-05-09T19:53:11.431Z,73.77
2024-05-09T19:55:38.789Z,73.88
2024-05-09T19:58:07.307Z,74.09
2024-05-09T20:00:36.947Z,74.12
2024-05-09T20:03:06.569Z,74.23
2024-05-09T20:05:37.164Z,74.03
2024-05-09T20:08:05.056Z,73.99
2024-05-09T20:10:34.279Z,74.18
2024-05-09T20:13:03.588Z,74.32
2024-05-09T20:15:31.345Z,74.47
2024-05-09T20:17:58.378Z,74.46
2024-05-09T20:20:33.672Z,74.68
2024-05-09T20:23:08.149Z,74.75
2024-05-09T20:25:35.104Z,74.47
2024-05-09T20:28:02.074Z,74.59
2024-05-09T20:30:32.638Z,74.85
2024-05-09T20:33:04.104Z,75.10
2024-05-09T20:35:32.808Z,74.87
2024-05-09T20:38:01.379Z,75.04
2024-05-09T20:40:35.562Z,75.18
2024-05-09T20:43:06.026Z,74.93
2024-05-09T20:45:33.665Z,75.14
2024-05-09T20:48:01.084Z,75.22
2024-05-09T20:50:36.542Z,75.51
2024-05-09T20:53:08.936Z,75.27
2024-05-09T20:55:38.905Z,75.72
2024-05-09T20:58:06.025Z,75.23
2024-05-09T21:00:40.164Z,75.61
2024-05-09T21:03:11.276Z,75.65
2024-05-09T21:05:39.015Z,75.75
2024-05-09T21:08:06.861Z,75.26
2024-05-09T21:10:34.833Z,75.61
2024-05-09T21:13:05.660Z,75.41
2024-05-09T21:15:33.250Z,75.73
2024-05-09T21:18:00.234Z,75.76
2024-05-09T21:20:31.900Z,76.03
2024-05-09T21:23:00.623Z,75.93
2024-05-09T21:25:27.741Z,75.98
2024-05-09T21:27:54.873Z,75.99
2024-05-09T21:32:54.272Z,76.13
2024-05-09T21:35:21.371Z,76.39
2024-05-09T21:37:48.365Z,76.32
2024-05-09T21:40:24.311Z,76.13
2024-05-09T21:42:58.341Z,76.64
2024-05-09T21:45:27.857Z,76.81
2024-05-09T21:47:54.975Z,76.33
2024-05-09T21:50:28.713Z,76.69
2024-05-09T21:53:03.831Z,76.44
2024-05-09T21:55:30.704Z,76.71
2024-05-09T21:57:57.662Z,76.83
2024-05-09T22:00:34.736Z,76.79
2024-05-09T22:03:05.124Z,77.08
2024-05-09T22:05:32.604Z,76.80
2024-05-09T22:07:59.923Z,77.15
2024-05-09T22:10:33.110Z,76.98
2024-05-09T22:13:03.444Z,77.33
2024-05-09T22:15:35.648Z,77.50
2024-05-09T22:18:03.694Z,77.54
2024-05-09T22:20:36.836Z,77.39
2024-05-09T22:23:06.178Z,77.62
2024-05-09T22:25:33.502Z,77.76
2024-05-09T22:28:01.267Z,77.69
2024-05-09T22:33:01.665Z,77.90
2024-05-09T22:35:28.532Z,78.01
2024-05-09T22:37:55.448Z,77.72
2024-05-09T22:40:29.537Z,78.05
2024-05-09T22:43:06.185Z,77.98
2024-05-09T22:45:33.399Z,77.87
2024-05-09T22:48:03.077Z,78.04
2024-05-09T22:50:33.291Z,78.23
2024-05-09T22:53:00.846Z,77.85
2024-05-09T22:55:27.914Z,77.96
2024-05-09T22:57:54.935Z,78.17
2024-05-09T23:00:29.457Z,78.18
2024-05-09T23:02:59.685Z,78.05
2024-05-09T23:05:29.824Z,78.53
2024-05-09T23:07:56.958Z,78.67
2024-05-09T23:10:31.510Z,78.62
2024-05-09T23:13:03.246Z,78.86
2024-05-09T23:15:30.322Z,78.48
2024-05-09T23:17:58.131Z,78.64
2024-05-09T23:20:36.238Z,78.81
2024-05-09T23:23:05.886Z,79.11
2024-05-09T23:25:32.781Z,78.86
2024-05-09T23:27:59.772Z,78.87
2024-05-09T23:30:37.180Z,78.95
2024-05-09T23:33:08.999Z,78.84
2024-05-09T23:35:38.673Z,79.14
2024-05-09T23:38:05.570Z,79.29
2024-05-09T23:43:02.571Z,79.25
2024-05-09T23:45:29.564Z,79.20
2024-05-09T23:47:56.511Z,79.38
2024-05-09T23:50:30.671Z,79.34
2024-05-09T23:53:04.787Z,79.45
2024-05-09T23:55:32.201Z,79.35
2024-05-09T23:57:59.592Z,79.20
